createdAt,value
2018-01-24T00:01:02.243Z,8.23
2018-01-24T00:02:08.476Z,6.55
2018-01-24T00:03:14.416Z,5.70
2018-01-24T00:04:21.495Z,6.37
2018-01-24T00:05:28.615Z,7.95
2018-01-24T00:06:34.752Z,7.40
2018-01-24T00:07:40.951Z,11.88
2018-01-24T00:08:46.871Z,7.03
2018-01-24T00:09:53.119Z,7.70
2018-01-24T00:10:59.036Z,6.32
2018-01-24T00:12:05.083Z,6.45
2018-01-24T00:13:11.206Z,7.65
2018-01-24T00:14:17.400Z,7.80
2018-01-24T00:15:27.484Z,8.15
2018-01-24T00:16:33.912Z,12.30
2018-01-24T00:17:40.179Z,5.62
2018-01-24T00:18:46.187Z,9.40
2018-01-24T00:19:53.087Z,6.65
2018-01-24T00:20:59.211Z,8.38
2018-01-24T00:22:05.402Z,9.82
2018-01-24T00:23:11.296Z,7.35
2018-01-24T00:24:18.108Z,5.97
2018-01-24T00:25:24.277Z,8.65
2018-01-24T00:26:30.078Z,8.25
2018-01-24T00:27:36.302Z,9.88
2018-01-24T00:28:42.275Z,7.45
2018-01-24T00:29:48.412Z,9.05
2018-01-24T00:30:54.592Z,7.60
2018-01-24T00:32:00.778Z,6.62
2018-01-24T00:33:06.985Z,8.55
2018-01-24T00:34:13.246Z,8.02
2018-01-24T00:35:19.377Z,6.30
2018-01-24T00:36:27.533Z,6.22
2018-01-24T00:37:33.425Z,7.43
2018-01-24T00:38:41.393Z,5.87
2018-01-24T00:39:47.598Z,10.18
2018-01-24T00:40:53.416Z,11.90
2018-01-24T00:41:59.616Z,7.20
2018-01-24T00:43:05.729Z,5.53
2018-01-24T00:44:12.781Z,7.00
2018-01-24T00:45:18.894Z,7.70
2018-01-24T00:46:25.341Z,5.55
2018-01-24T00:47:31.559Z,5.93
2018-01-24T00:48:37.737Z,8.23
2018-01-24T00:49:43.991Z,5.65
2018-01-24T00:50:50.165Z,7.28
2018-01-24T00:52:01.347Z,3.97
2018-01-24T00:53:08.394Z,7.43
2018-01-24T00:54:14.535Z,7.57
2018-01-24T00:55:21.583Z,4.93
2018-01-24T00:56:27.718Z,4.97
2018-01-24T00:57:33.881Z,4.95
2018-01-24T00:58:40.050Z,6.05
2018-01-24T00:59:47.110Z,6.05
2018-01-24T01:00:53.300Z,7.22
2018-01-24T01:01:59.457Z,6.55
2018-01-24T01:03:07.047Z,4.25
2018-01-24T01:04:13.188Z,7.28
2018-01-24T01:05:19.270Z,6.32
2018-01-24T01:06:25.437Z,5.20
2018-01-24T01:07:31.575Z,4.47
2018-01-24T01:08:37.777Z,6.70
2018-01-24T01:09:43.921Z,7.18
2018-01-24T01:10:50.090Z,5.07
2018-01-24T01:11:56.263Z,7.15
2018-01-24T01:13:02.375Z,4.37
2018-01-24T01:14:08.418Z,4.25
2018-01-24T01:15:14.582Z,6.60
2018-01-24T01:16:20.849Z,6.40
2018-01-24T01:17:26.997Z,7.55
2018-01-24T01:18:33.231Z,4.82
2018-01-24T01:19:39.500Z,4.03
2018-01-24T01:20:45.721Z,5.40
2018-01-24T01:21:52.069Z,7.78
2018-01-24T01:22:58.169Z,5.87
2018-01-24T01:24:04.309Z,5.90
2018-01-24T01:25:10.112Z,4.60
2018-01-24T01:26:16.246Z,5.30
2018-01-24T01:27:22.450Z,5.47
2018-01-24T01:28:28.560Z,5.80
2018-01-24T01:29:34.750Z,4.47
2018-01-24T01:30:41.012Z,6.53
2018-01-24T01:31:47.882Z,7.00
2018-01-24T01:32:54.016Z,4.37
2018-01-24T01:34:00.174Z,5.65
2018-01-24T01:35:06.321Z,5.78
2018-01-24T01:36:12.488Z,5.95
2018-01-24T01:37:18.653Z,8.30
2018-01-24T01:38:24.775Z,5.18
2018-01-24T01:39:30.928Z,7.07
2018-01-24T01:40:37.052Z,4.28
2018-01-24T01:41:43.168Z,5.07
2018-01-24T01:42:49.200Z,5.85
2018-01-24T01:43:55.267Z,4.30
2018-01-24T01:45:01.417Z,6.95
2018-01-24T01:46:07.610Z,6.03
2018-01-24T01:47:13.649Z,8.90
2018-01-24T01:48:31.025Z,7.28
2018-01-24T01:49:37.024Z,6.57
2018-01-24T01:50:43.021Z,7.78
2018-01-24T01:51:48.984Z,8.55
2018-01-24T01:52:54.979Z,4.25
2018-01-24T01:54:00.888Z,5.37
2018-01-24T01:55:06.900Z,9.20
2018-01-24T01:56:13.050Z,5.25
2018-01-24T01:57:18.983Z,4.72
2018-01-24T01:58:25.161Z,11.07
2018-01-24T01:59:31.148Z,8.00
2018-01-24T02:00:37.300Z,8.52
2018-01-24T02:01:48.394Z,7.40
2018-01-24T02:02:54.522Z,5.18
2018-01-24T02:04:00.678Z,6.50
2018-01-24T02:05:06.808Z,5.60
2018-01-24T02:06:13.010Z,5.75
2018-01-24T02:07:19.239Z,4.65
2018-01-24T02:08:25.359Z,6.47
2018-01-24T02:09:31.547Z,7.15
2018-01-24T02:10:37.713Z,6.35
2018-01-24T02:11:43.938Z,5.32
2018-01-24T02:12:50.178Z,6.93
2018-01-24T02:13:56.299Z,6.75
2018-01-24T02:15:02.427Z,5.45
2018-01-24T02:16:08.229Z,9.82
2018-01-24T02:17:13.833Z,5.53
2018-01-24T02:18:19.768Z,7.00
2018-01-24T02:19:25.683Z,4.90
2018-01-24T02:20:31.709Z,4.95
2018-01-24T02:21:37.888Z,5.32
2018-01-24T02:22:44.110Z,6.32
2018-01-24T02:23:50.066Z,10.02
2018-01-24T02:24:56.075Z,6.55
2018-01-24T02:26:02.438Z,7.20
2018-01-24T02:27:08.405Z,7.62
2018-01-24T02:28:14.461Z,4.93
2018-01-24T02:29:20.595Z,6.12
2018-01-24T02:30:26.759Z,6.40
2018-01-24T02:31:32.993Z,9.25
2018-01-24T02:32:39.122Z,4.97
2018-01-24T02:33:45.283Z,5.97
2018-01-24T02:34:51.679Z,7.05
2018-01-24T02:35:57.871Z,8.25
2018-01-24T02:37:09.159Z,5.60
2018-01-24T02:40:05.295Z,5.90
2018-01-24T02:41:11.406Z,5.80
2018-01-24T02:42:17.563Z,5.12
2018-01-24T02:43:23.672Z,6.35
2018-01-24T02:44:29.805Z,5.80
2018-01-24T02:45:36.222Z,4.55
2018-01-24T02:46:42.375Z,5.20
2018-01-24T02:47:48.531Z,7.12
2018-01-24T02:48:54.743Z,5.30
2018-01-24T02:50:01.765Z,5.90
2018-01-24T02:51:07.914Z,6.25
2018-01-24T02:52:14.124Z,7.05
2018-01-24T02:53:20.544Z,7.20
2018-01-24T02:54:26.650Z,4.62
2018-01-24T02:55:32.750Z,4.95
2018-01-24T02:56:38.953Z,4.55
2018-01-24T02:57:47.218Z,7.62
2018-01-24T02:58:53.329Z,8.77
2018-01-24T02:59:59.430Z,5.12
2018-01-24T03:01:05.527Z,8.93
2018-01-24T03:02:11.282Z,7.07
2018-01-24T03:03:18.519Z,7.10
2018-01-24T03:04:24.409Z,5.97
2018-01-24T03:05:30.521Z,5.00
2018-01-24T03:06:36.681Z,6.60
2018-01-24T03:07:42.785Z,4.55
2018-01-24T03:08:48.968Z,4.90
2018-01-24T03:09:55.092Z,4.40
2018-01-24T03:11:01.265Z,6.18
2018-01-24T03:12:12.903Z,7.65
2018-01-24T03:13:19.000Z,6.65
2018-01-24T03:14:25.179Z,5.43
2018-01-24T03:15:31.328Z,4.65
2018-01-24T03:16:37.445Z,4.70
2018-01-24T03:17:43.548Z,4.93
2018-01-24T03:18:49.712Z,6.97
2018-01-24T03:19:55.816Z,4.55
2018-01-24T03:21:01.976Z,5.18
2018-01-24T03:22:08.077Z,4.12
2018-01-24T03:23:14.177Z,4.70
2018-01-24T03:24:23.416Z,4.45
2018-01-24T03:25:29.609Z,4.90
2018-01-24T03:26:35.743Z,6.18
2018-01-24T03:27:41.681Z,5.75
2018-01-24T03:28:47.864Z,4.90
2018-01-24T03:29:53.967Z,4.35
2018-01-24T03:31:00.349Z,4.55
2018-01-24T03:32:06.501Z,8.27
2018-01-24T03:33:12.650Z,4.28
2018-01-24T03:34:18.829Z,4.90
2018-01-24T03:35:24.961Z,5.25
2018-01-24T03:36:31.070Z,5.78
2018-01-24T03:37:37.188Z,6.05
2018-01-24T03:38:43.412Z,4.50
2018-01-24T03:39:49.569Z,4.82
2018-01-24T03:40:55.785Z,4.62
2018-01-24T03:42:01.926Z,7.22
2018-01-24T03:43:08.123Z,5.53
2018-01-24T03:44:14.247Z,5.10
2018-01-24T03:45:20.399Z,7.30
2018-01-24T03:46:27.503Z,3.42
2018-01-24T03:47:33.613Z,4.55
2018-01-24T03:48:39.799Z,8.30
2018-01-24T03:49:45.934Z,4.70
2018-01-24T03:50:52.057Z,5.65
2018-01-24T03:51:58.152Z,4.37
2018-01-24T03:53:04.287Z,4.22
2018-01-24T03:54:10.477Z,5.35
2018-01-24T03:55:16.576Z,4.10
2018-01-24T03:56:22.815Z,5.40
2018-01-24T03:57:28.632Z,5.12
2018-01-24T03:58:34.780Z,5.15
2018-01-24T03:59:40.882Z,6.55
2018-01-24T04:00:46.976Z,5.07
2018-01-24T04:01:53.160Z,4.93
2018-01-24T04:02:59.347Z,5.15
2018-01-24T04:04:05.456Z,5.87
2018-01-24T04:05:11.336Z,6.95
2018-01-24T04:06:17.482Z,5.10
2018-01-24T04:07:23.820Z,4.07
2018-01-24T04:08:29.571Z,6.15
2018-01-24T04:09:36.098Z,5.50
2018-01-24T04:10:42.209Z,5.68
2018-01-24T04:11:48.033Z,6.28
2018-01-24T04:12:54.199Z,7.78
2018-01-24T04:14:00.320Z,5.47
2018-01-24T04:15:06.428Z,4.07
2018-01-24T04:16:12.637Z,6.20
2018-01-24T04:17:18.773Z,5.45
2018-01-24T04:18:24.945Z,5.22
2018-01-24T04:19:31.106Z,5.00
2018-01-24T04:20:39.367Z,6.97
2018-01-24T04:21:45.628Z,5.75
2018-01-24T04:22:51.895Z,4.95
2018-01-24T04:23:58.128Z,6.80
2018-01-24T04:25:04.212Z,6.22
2018-01-24T04:26:10.356Z,5.97
2018-01-24T04:27:16.495Z,7.60
2018-01-24T04:28:22.655Z,12.02
2018-01-24T04:29:28.825Z,6.97
2018-01-24T04:30:34.940Z,7.35
2018-01-24T04:31:41.054Z,9.27
2018-01-24T04:32:47.263Z,6.75
2018-01-24T04:33:53.383Z,11.25
2018-01-24T04:34:59.687Z,7.07
2018-01-24T04:36:05.787Z,9.35
2018-01-24T04:37:11.601Z,10.20
2018-01-24T04:38:17.850Z,10.50
2018-01-24T04:39:23.973Z,8.95
2018-01-24T04:40:30.076Z,10.05
2018-01-24T04:41:36.324Z,10.23
2018-01-24T04:42:44.002Z,7.60
2018-01-24T04:43:50.144Z,8.07
2018-01-24T04:44:56.186Z,9.88
2018-01-24T04:46:02.316Z,9.10
2018-01-24T04:47:08.496Z,9.73
2018-01-24T04:48:14.613Z,8.05
2018-01-24T04:49:20.839Z,9.95
2018-01-24T04:50:26.779Z,8.35
2018-01-24T04:51:33.578Z,7.97
2018-01-24T04:52:39.788Z,7.60
2018-01-24T04:53:45.901Z,7.62
2018-01-24T04:54:52.038Z,8.52
2018-01-24T04:55:58.204Z,7.45
2018-01-24T04:57:04.305Z,8.30
2018-01-24T04:58:10.419Z,8.60
2018-01-24T04:59:16.308Z,9.38
2018-01-24T05:00:22.232Z,11.73
2018-01-24T05:01:27.939Z,7.07
2018-01-24T05:02:33.868Z,8.73
2018-01-24T05:03:40.852Z,7.53
2018-01-24T05:04:46.764Z,9.05
2018-01-24T05:05:52.940Z,10.25
2018-01-24T05:07:02.787Z,7.70
2018-01-24T05:08:08.797Z,8.00
2018-01-24T05:09:14.713Z,9.27
2018-01-24T05:10:20.673Z,6.87
2018-01-24T05:11:26.673Z,9.40
2018-01-24T05:12:32.654Z,7.62
2018-01-24T05:13:38.672Z,11.63
2018-01-24T05:14:44.644Z,8.98
2018-01-24T05:15:50.708Z,7.03
2018-01-24T05:16:57.668Z,8.48
2018-01-24T05:18:03.818Z,8.65
2018-01-24T05:19:10.023Z,9.70
2018-01-24T05:20:16.317Z,8.00
2018-01-24T05:21:22.300Z,7.12
2018-01-24T05:22:28.287Z,7.35
2018-01-24T05:23:34.951Z,9.70
2018-01-24T05:24:41.179Z,8.50
2018-01-24T05:25:47.432Z,7.07
2018-01-24T05:26:53.578Z,7.45
2018-01-24T05:27:59.739Z,7.87
2018-01-24T05:29:10.573Z,7.07
2018-01-24T05:30:17.522Z,7.03
2018-01-24T05:31:23.692Z,7.05
2018-01-24T05:32:29.969Z,6.97
2018-01-24T05:33:37.096Z,7.60
2018-01-24T05:34:43.264Z,7.28
2018-01-24T05:35:49.951Z,7.20
2018-01-24T05:36:56.217Z,8.27
2018-01-24T05:38:02.328Z,7.72
2018-01-24T05:39:08.455Z,6.65
2018-01-24T05:40:14.683Z,7.22
2018-01-24T05:41:20.886Z,15.90
2018-01-24T05:42:27.067Z,6.80
2018-01-24T05:43:33.419Z,8.60
2018-01-24T05:44:39.573Z,6.12
2018-01-24T05:45:45.731Z,7.07
2018-01-24T05:46:51.836Z,6.70
2018-01-24T05:47:58.001Z,10.68
2018-01-24T05:49:04.323Z,6.15
2018-01-24T05:50:10.689Z,7.10
2018-01-24T05:51:16.853Z,7.82
2018-01-24T05:52:23.010Z,6.75
2018-01-24T05:53:29.100Z,7.93
2018-01-24T05:54:35.437Z,8.93
2018-01-24T05:55:41.542Z,6.28
2018-01-24T05:56:47.630Z,7.20
2018-01-24T05:57:53.791Z,6.85
2018-01-24T05:58:59.940Z,6.28
2018-01-24T06:00:05.931Z,5.35
2018-01-24T06:01:12.100Z,7.25
2018-01-24T06:02:18.287Z,5.28
2018-01-24T06:03:24.504Z,5.05
2018-01-24T06:04:30.632Z,4.68
2018-01-24T06:05:36.803Z,4.10
2018-01-24T06:06:42.954Z,7.75
2018-01-24T06:07:49.354Z,4.53
2018-01-24T06:08:55.337Z,3.95
2018-01-24T06:10:02.132Z,3.85
2018-01-24T06:11:08.379Z,4.95
2018-01-24T06:12:14.499Z,3.80
2018-01-24T06:13:20.975Z,5.82
2018-01-24T06:14:27.102Z,4.40
2018-01-24T06:15:33.231Z,4.40
2018-01-24T06:16:39.336Z,3.75
2018-01-24T06:17:46.060Z,5.10
2018-01-24T06:18:54.824Z,5.55
2018-01-24T06:20:02.898Z,4.25
2018-01-24T06:21:10.845Z,5.60
2018-01-24T06:22:20.374Z,3.30
2018-01-24T06:23:28.430Z,3.08
2018-01-24T06:24:36.021Z,4.05
2018-01-24T06:25:43.137Z,4.05
2018-01-24T06:26:50.345Z,4.30
2018-01-24T06:27:56.797Z,4.45
2018-01-24T06:29:02.939Z,4.93
2018-01-24T06:30:08.726Z,4.15
2018-01-24T06:31:14.874Z,2.80
2018-01-24T06:32:21.036Z,3.55
2018-01-24T06:33:27.180Z,4.53
2018-01-24T06:34:33.326Z,4.97
2018-01-24T06:35:39.245Z,2.78
2018-01-24T06:36:45.407Z,4.87
2018-01-24T06:37:51.555Z,2.53
2018-01-24T06:38:57.580Z,3.20
2018-01-24T06:40:03.694Z,3.33
2018-01-24T06:41:09.681Z,3.25
2018-01-24T06:42:15.844Z,2.55
2018-01-24T06:43:22.063Z,2.75
2018-01-24T06:44:28.177Z,3.35
2018-01-24T06:45:34.399Z,4.57
2018-01-24T06:46:40.808Z,4.05
2018-01-24T06:47:47.079Z,2.85
2018-01-24T06:48:53.515Z,3.12
2018-01-24T06:49:59.987Z,2.97
2018-01-24T06:51:06.944Z,4.07
2018-01-24T06:52:13.186Z,2.83
2018-01-24T06:53:19.364Z,3.15
2018-01-24T06:54:25.884Z,3.42
2018-01-24T06:55:32.269Z,3.67
2018-01-24T06:56:38.576Z,3.37
2018-01-24T06:57:45.008Z,4.18
2018-01-24T06:58:51.244Z,14.90
2018-01-24T06:59:57.486Z,5.65
2018-01-24T07:01:03.779Z,9.25
2018-01-24T07:02:09.971Z,14.40
2018-01-24T07:03:16.400Z,6.50
2018-01-24T07:04:23.712Z,5.62
2018-01-24T07:05:32.048Z,2.85
2018-01-24T07:06:39.161Z,3.08
2018-01-24T07:07:45.330Z,2.70
2018-01-24T07:08:52.015Z,2.85
2018-01-24T07:09:58.703Z,3.22
2018-01-24T07:11:04.883Z,3.08
2018-01-24T07:12:22.132Z,2.37
2018-01-24T07:13:39.115Z,2.53
2018-01-24T07:14:45.433Z,2.20
2018-01-24T07:15:51.879Z,3.72
2018-01-24T07:16:58.183Z,2.60
2018-01-24T07:18:04.572Z,2.42
2018-01-24T07:19:10.900Z,2.75
2018-01-24T07:20:17.441Z,2.60
2018-01-24T07:21:23.762Z,3.30
2018-01-24T07:22:30.291Z,2.28
2018-01-24T07:23:36.636Z,2.60
2018-01-24T07:24:42.883Z,2.87
2018-01-24T07:25:49.170Z,2.72
2018-01-24T07:26:55.792Z,2.40
2018-01-24T07:28:02.307Z,2.62
2018-01-24T07:29:08.478Z,2.80
2018-01-24T07:30:14.584Z,3.85
2018-01-24T07:31:21.481Z,2.78
2018-01-24T07:32:27.878Z,2.72
2018-01-24T07:33:34.479Z,10.57
2018-01-24T07:34:40.961Z,7.97
2018-01-24T07:35:47.229Z,4.12
2018-01-24T07:36:53.585Z,26.12
2018-01-24T07:38:00.162Z,73.37
2018-01-24T07:39:07.058Z,12.20
2018-01-24T07:40:13.201Z,4.25
2018-01-24T07:41:20.132Z,3.30
2018-01-24T07:42:26.488Z,2.55
2018-01-24T07:43:32.696Z,3.17
2018-01-24T07:44:39.108Z,2.70
2018-01-24T07:45:45.292Z,2.40
2018-01-24T07:46:51.739Z,3.37
2018-01-24T07:47:58.791Z,2.67
2018-01-24T07:49:05.209Z,3.30
2018-01-24T07:50:11.537Z,2.75
2018-01-24T07:51:17.660Z,3.62
2018-01-24T07:52:24.055Z,3.42
2018-01-24T07:53:31.837Z,3.22
2018-01-24T07:54:38.625Z,2.95
2018-01-24T07:55:45.471Z,3.33
2018-01-24T07:56:52.507Z,3.30
2018-01-24T07:57:58.798Z,4.10
2018-01-24T07:59:05.464Z,3.47
2018-01-24T08:00:12.640Z,3.15
2018-01-24T08:01:18.930Z,3.05
2018-01-24T08:02:25.188Z,3.55
2018-01-24T08:03:31.324Z,2.97
2018-01-24T08:04:37.631Z,2.67
2018-01-24T08:05:43.973Z,3.12
2018-01-24T08:06:50.405Z,2.97
2018-01-24T08:07:56.588Z,2.10
2018-01-24T08:09:03.116Z,2.40
2018-01-24T08:10:08.936Z,2.65
2018-01-24T08:11:15.135Z,3.85
2018-01-24T08:12:26.521Z,2.70
2018-01-24T08:13:32.657Z,2.20
2018-01-24T08:14:39.810Z,2.58
2018-01-24T08:15:47.709Z,1.45
2018-01-24T08:16:53.939Z,3.22
2018-01-24T08:18:00.102Z,1.40
2018-01-24T08:19:05.826Z,1.70
2018-01-24T08:20:12.098Z,1.80
2018-01-24T08:21:18.205Z,2.05
2018-01-24T08:22:24.332Z,1.30
2018-01-24T08:23:30.666Z,1.80
2018-01-24T08:24:36.800Z,1.50
2018-01-24T08:25:42.931Z,1.30
2018-01-24T08:26:49.056Z,1.42
2018-01-24T08:27:55.273Z,0.90
2018-01-24T08:29:01.380Z,3.45
2018-01-24T08:30:07.955Z,1.55
2018-01-24T08:31:15.698Z,2.25
2018-01-24T08:32:21.880Z,2.72
2018-01-24T08:33:28.052Z,1.65
2018-01-24T08:34:34.180Z,1.70
2018-01-24T08:35:41.316Z,1.42
2018-01-24T08:36:47.507Z,1.30
2018-01-24T08:37:53.684Z,2.25
2018-01-24T08:38:59.813Z,2.37
2018-01-24T08:40:06.002Z,1.55
2018-01-24T08:41:12.249Z,1.85
2018-01-24T08:42:18.034Z,1.85
2018-01-24T08:43:24.156Z,2.05
2018-01-24T08:44:30.316Z,1.40
2018-01-24T08:45:36.435Z,2.35
2018-01-24T08:46:42.593Z,1.98
2018-01-24T08:47:48.748Z,2.00
2018-01-24T08:48:54.882Z,1.90
2018-01-24T08:50:01.057Z,2.15
2018-01-24T08:51:07.315Z,1.73
2018-01-24T08:52:13.517Z,2.20
2018-01-24T08:53:20.274Z,1.80
2018-01-24T08:54:27.893Z,2.25
2018-01-24T08:55:34.478Z,2.45
2018-01-24T08:56:40.924Z,2.15
2018-01-24T08:57:47.107Z,2.60
2018-01-24T08:58:54.301Z,15.63
2018-01-24T09:00:18.263Z,10.65
2018-01-24T09:01:47.176Z,16.05
2018-01-24T09:03:15.723Z,15.05
2018-01-24T09:04:44.319Z,15.82
2018-01-24T09:06:12.890Z,18.87
2018-01-24T09:07:41.160Z,10.20
2018-01-24T09:09:09.953Z,4.87
2018-01-24T09:10:38.306Z,14.80
2018-01-24T09:12:06.739Z,18.98
2018-01-24T09:13:35.220Z,6.75
2018-01-24T09:15:03.827Z,2.95
2018-01-24T09:16:32.439Z,2.55
2018-01-24T09:18:00.807Z,2.60
2018-01-24T09:19:29.072Z,3.50
2018-01-24T09:20:57.819Z,2.90
2018-01-24T09:22:26.316Z,2.17
2018-01-24T09:23:50.825Z,3.25
2018-01-24T09:25:00.666Z,2.47
2018-01-24T09:26:07.420Z,2.28
2018-01-24T09:27:13.758Z,2.50
2018-01-24T09:28:20.101Z,2.20
2018-01-24T09:29:26.442Z,2.85
2018-01-24T09:30:32.664Z,2.62
2018-01-24T09:31:39.431Z,2.45
2018-01-24T09:32:45.646Z,2.22
2018-01-24T09:33:51.842Z,2.58
2018-01-24T09:34:58.034Z,2.65
2018-01-24T09:36:04.665Z,3.12
2018-01-24T09:37:11.442Z,1.80
2018-01-24T09:38:17.835Z,3.15
2018-01-24T09:39:24.207Z,2.20
2018-01-24T09:40:30.612Z,1.80
2018-01-24T09:41:37.457Z,3.05
2018-01-24T09:42:43.812Z,3.83
2018-01-24T09:43:50.185Z,3.08
2018-01-24T09:44:56.648Z,2.90
2018-01-24T09:46:02.843Z,2.33
2018-01-24T09:47:09.155Z,3.55
2018-01-24T09:48:15.379Z,2.87
2018-01-24T09:49:21.708Z,2.47
2018-01-24T09:50:27.997Z,2.37
2018-01-24T09:51:34.193Z,1.70
2018-01-24T09:52:40.702Z,3.50
2018-01-24T09:53:46.969Z,2.20
2018-01-24T09:54:54.068Z,1.95
2018-01-24T09:56:00.184Z,2.30
2018-01-24T09:57:06.315Z,2.42
2018-01-24T09:58:15.184Z,2.80
2018-01-24T09:59:21.330Z,1.75
2018-01-24T10:00:27.511Z,1.90
2018-01-24T10:01:33.696Z,1.80
2018-01-24T10:02:40.778Z,2.58
2018-01-24T10:03:49.966Z,3.40
2018-01-24T10:04:56.123Z,2.35
2018-01-24T10:06:02.283Z,2.22
2018-01-24T10:07:08.452Z,3.17
2018-01-24T10:08:14.695Z,3.47
2018-01-24T10:09:22.260Z,2.40
2018-01-24T10:10:28.476Z,2.50
2018-01-24T10:11:34.624Z,1.85
2018-01-24T10:12:41.652Z,2.65
2018-01-24T10:13:47.840Z,3.25
2018-01-24T10:14:54.112Z,2.58
2018-01-24T10:16:01.391Z,2.10
2018-01-24T10:17:07.631Z,2.35
2018-01-24T10:18:13.804Z,2.12
2018-01-24T10:19:20.015Z,4.15
2018-01-24T10:20:26.185Z,3.60
2018-01-24T10:21:32.314Z,3.03
2018-01-24T10:22:39.333Z,2.83
2018-01-24T10:23:46.250Z,2.35
2018-01-24T10:24:53.209Z,2.37
2018-01-24T10:26:00.649Z,2.10
2018-01-24T10:27:08.418Z,2.72
2018-01-24T10:28:15.382Z,2.03
2018-01-24T10:29:23.058Z,2.40
2018-01-24T10:30:30.321Z,2.05
2018-01-24T10:31:37.715Z,4.35
2018-01-24T10:32:45.868Z,2.12
2018-01-24T10:33:52.918Z,4.10
2018-01-24T10:35:00.510Z,2.20
2018-01-24T10:36:06.779Z,2.60
2018-01-24T10:37:13.163Z,3.70
2018-01-24T10:38:19.368Z,2.72
2018-01-24T10:39:25.571Z,2.72
2018-01-24T10:40:31.789Z,3.25
2018-01-24T10:41:38.022Z,2.30
2018-01-24T10:42:44.536Z,2.50
2018-01-24T10:43:51.352Z,1.90
2018-01-24T10:44:57.763Z,3.95
2018-01-24T10:46:04.294Z,3.70
2018-01-24T10:47:11.909Z,2.78
2018-01-24T10:48:20.631Z,3.37
2018-01-24T10:49:27.995Z,2.95
2018-01-24T10:50:34.712Z,2.40
2018-01-24T10:51:41.873Z,3.08
2018-01-24T10:52:51.160Z,3.08
2018-01-24T10:53:58.749Z,3.17
2018-01-24T10:55:06.807Z,2.03
2018-01-24T10:56:13.892Z,2.67
2018-01-24T10:57:20.862Z,2.85
2018-01-24T10:58:28.085Z,2.50
2018-01-24T10:59:35.123Z,4.62
2018-01-24T11:00:43.372Z,1.65
2018-01-24T11:01:51.129Z,3.00
2018-01-24T11:02:58.365Z,2.60
2018-01-24T11:04:05.621Z,2.87
2018-01-24T11:05:12.636Z,1.95
2018-01-24T11:06:18.970Z,2.65
2018-01-24T11:07:25.038Z,2.58
2018-01-24T11:08:30.631Z,2.53
2018-01-24T11:09:37.018Z,2.20
2018-01-24T11:10:43.312Z,3.85
2018-01-24T11:11:49.331Z,2.50
2018-01-24T11:12:55.631Z,2.95
2018-01-24T11:14:01.663Z,2.83
2018-01-24T11:15:07.951Z,2.42
2018-01-24T11:16:14.244Z,2.12
2018-01-24T11:17:20.457Z,1.95
2018-01-24T11:18:26.814Z,2.28
2018-01-24T11:19:33.011Z,1.77
2018-01-24T11:20:39.638Z,1.75
2018-01-24T11:21:45.466Z,2.10
2018-01-24T11:22:52.258Z,2.05
2018-01-24T11:23:58.556Z,2.40
2018-01-24T11:25:04.861Z,1.60
2018-01-24T11:26:12.212Z,2.03
2018-01-24T11:27:18.367Z,1.50
2018-01-24T11:28:24.718Z,1.65
2018-01-24T11:29:31.220Z,2.83
2018-01-24T11:30:37.587Z,2.00
2018-01-24T11:31:44.071Z,2.15
2018-01-24T11:32:50.673Z,2.12
2018-01-24T11:33:57.555Z,1.90
2018-01-24T11:35:03.832Z,1.85
2018-01-24T11:36:09.969Z,1.40
2018-01-24T11:37:17.993Z,1.85
2018-01-24T11:38:25.123Z,1.55
2018-01-24T11:39:31.495Z,1.50
2018-01-24T11:40:37.685Z,1.70
2018-01-24T11:41:49.007Z,1.98
2018-01-24T11:42:55.251Z,1.50
2018-01-24T11:44:01.682Z,2.25
2018-01-24T11:45:08.007Z,2.20
2018-01-24T11:46:14.580Z,2.90
2018-01-24T11:47:21.139Z,4.75
2018-01-24T11:48:27.536Z,2.10
2018-01-24T11:49:34.587Z,1.62
2018-01-24T11:50:41.463Z,2.05
2018-01-24T11:51:48.709Z,2.12
2018-01-24T11:52:55.044Z,4.68
2018-01-24T11:54:01.603Z,1.70
2018-01-24T11:55:08.017Z,1.80
2018-01-24T11:56:15.403Z,1.90
2018-01-24T11:57:22.238Z,1.45
2018-01-24T11:58:28.637Z,1.45
2018-01-24T11:59:35.073Z,1.87
2018-01-24T12:00:43.558Z,1.50
2018-01-24T12:01:50.432Z,1.60
2018-01-24T12:02:57.098Z,2.95
2018-01-24T12:04:03.779Z,1.70
2018-01-24T12:05:10.011Z,1.75
2018-01-24T12:06:15.988Z,1.42
2018-01-24T12:07:22.647Z,1.35
2018-01-24T12:08:29.331Z,1.92
2018-01-24T12:09:35.844Z,1.73
2018-01-24T12:10:42.400Z,1.27
2018-01-24T12:11:48.564Z,1.62
2018-01-24T12:12:54.828Z,2.05
2018-01-24T12:14:01.936Z,1.58
2018-01-24T12:15:08.452Z,1.55
2018-01-24T12:16:15.445Z,1.73
2018-01-24T12:17:22.477Z,1.60
2018-01-24T12:18:28.691Z,1.85
2018-01-24T12:19:35.867Z,2.05
2018-01-24T12:20:42.174Z,1.58
2018-01-24T12:21:48.632Z,2.22
2018-01-24T12:22:54.886Z,1.60
2018-01-24T12:24:01.496Z,1.50
2018-01-24T12:25:07.753Z,1.87
2018-01-24T12:26:14.101Z,1.60
2018-01-24T12:27:20.352Z,2.90
2018-01-24T12:28:26.707Z,1.62
2018-01-24T12:29:32.622Z,1.90
2018-01-24T12:30:38.747Z,2.10
2018-01-24T12:31:45.140Z,1.40
2018-01-24T12:32:51.362Z,1.25
2018-01-24T12:33:57.545Z,1.60
2018-01-24T12:35:04.392Z,1.40
2018-01-24T12:36:12.710Z,1.30
2018-01-24T12:37:22.635Z,3.22
2018-01-24T12:38:30.642Z,1.80
2018-01-24T12:39:37.846Z,1.37
2018-01-24T12:40:45.606Z,1.23
2018-01-24T12:41:53.152Z,1.52
2018-01-24T12:42:59.647Z,1.40
2018-01-24T12:44:06.895Z,1.80
2018-01-24T12:45:13.277Z,1.48
2018-01-24T12:46:22.477Z,1.37
2018-01-24T12:47:29.734Z,2.00
2018-01-24T12:48:37.741Z,1.30
2018-01-24T12:49:44.364Z,3.25
2018-01-24T12:50:55.699Z,1.92
2018-01-24T12:52:01.934Z,3.50
2018-01-24T12:53:08.344Z,1.65
2018-01-24T12:54:14.866Z,1.20
2018-01-24T12:55:21.332Z,1.20
2018-01-24T12:56:27.677Z,2.75
2018-01-24T12:57:33.870Z,2.10
2018-01-24T12:58:40.082Z,1.35
2018-01-24T12:59:46.327Z,1.92
2018-01-24T13:00:52.885Z,1.50
2018-01-24T13:01:59.079Z,1.35
2018-01-24T13:03:05.235Z,1.35
2018-01-24T13:04:11.492Z,1.30
2018-01-24T13:05:18.576Z,1.17
2018-01-24T13:06:24.736Z,1.30
2018-01-24T13:07:31.043Z,2.83
2018-01-24T13:08:37.309Z,1.80
2018-01-24T13:09:43.595Z,1.30
2018-01-24T13:10:49.952Z,2.75
2018-01-24T13:11:56.511Z,2.28
2018-01-24T13:13:02.800Z,1.42
2018-01-24T13:14:08.619Z,1.73
2018-01-24T13:15:14.811Z,1.60
2018-01-24T13:16:21.458Z,1.25
2018-01-24T13:17:27.750Z,1.58
2018-01-24T13:18:35.090Z,1.50
2018-01-24T13:19:41.232Z,1.08
2018-01-24T13:20:47.480Z,2.45
2018-01-24T13:21:53.685Z,1.67
2018-01-24T13:23:00.112Z,1.40
2018-01-24T13:24:06.467Z,2.30
2018-01-24T13:25:12.828Z,1.73
2018-01-24T13:26:19.576Z,1.80
2018-01-24T13:27:25.791Z,1.65
2018-01-24T13:28:33.164Z,1.55
2018-01-24T13:29:40.717Z,1.30
2018-01-24T13:30:47.160Z,1.48
2018-01-24T13:31:53.371Z,1.45
2018-01-24T13:33:00.098Z,1.58
2018-01-24T13:34:07.261Z,1.40
2018-01-24T13:35:15.110Z,1.48
2018-01-24T13:36:22.042Z,1.33
2018-01-24T13:37:29.195Z,2.75
2018-01-24T13:38:36.377Z,1.90
2018-01-24T13:39:43.405Z,2.30
2018-01-24T13:40:49.937Z,1.40
2018-01-24T13:41:56.200Z,1.70
2018-01-24T13:43:02.644Z,3.25
2018-01-24T13:44:08.966Z,1.60
2018-01-24T13:45:15.331Z,1.70
2018-01-24T13:46:21.815Z,1.40
2018-01-24T13:47:28.451Z,1.55
2018-01-24T13:48:35.308Z,1.60
2018-01-24T13:49:41.892Z,1.48
2018-01-24T13:50:49.747Z,1.30
2018-01-24T13:51:57.334Z,1.50
2018-01-24T13:53:03.776Z,1.40
2018-01-24T13:54:10.322Z,1.10
2018-01-24T13:55:18.677Z,4.55
2018-01-24T13:56:26.640Z,1.33
2018-01-24T13:57:33.657Z,1.37
2018-01-24T13:58:41.080Z,1.45
2018-01-24T13:59:48.555Z,1.50
2018-01-24T14:00:54.381Z,1.95
2018-01-24T14:02:02.637Z,1.83
2018-01-24T14:03:08.905Z,1.50
2018-01-24T14:04:16.506Z,1.62
2018-01-24T14:05:23.182Z,1.20
2018-01-24T14:06:29.342Z,1.37
2018-01-24T14:07:36.602Z,1.55
2018-01-24T14:08:43.028Z,2.15
2018-01-24T14:09:50.501Z,1.37
2018-01-24T14:10:57.540Z,1.52
2018-01-24T14:12:04.490Z,2.05
2018-01-24T14:13:10.682Z,2.47
2018-01-24T14:14:18.157Z,1.70
2018-01-24T14:15:25.208Z,1.92
2018-01-24T14:16:31.737Z,1.62
2018-01-24T14:17:37.952Z,1.92
2018-01-24T14:18:44.503Z,1.70
2018-01-24T14:19:50.947Z,1.73
2018-01-24T14:20:57.268Z,1.77
2018-01-24T14:22:03.566Z,1.65
2018-01-24T14:23:09.761Z,3.42
2018-01-24T14:24:15.986Z,2.50
2018-01-24T14:25:22.196Z,2.65
2018-01-24T14:26:28.416Z,2.60
2018-01-24T14:27:34.584Z,1.50
2018-01-24T14:28:41.517Z,1.25
2018-01-24T14:29:47.662Z,1.20
2018-01-24T14:30:53.831Z,1.23
2018-01-24T14:32:03.310Z,1.30
2018-01-24T14:33:11.396Z,1.20
2018-01-24T14:34:18.865Z,1.08
2018-01-24T14:35:27.679Z,1.20
2018-01-24T14:36:34.351Z,1.58
2018-01-24T14:37:40.659Z,2.30
2018-01-24T14:38:47.030Z,1.20
2018-01-24T14:39:53.463Z,1.35
2018-01-24T14:40:59.753Z,1.52
2018-01-24T14:42:05.877Z,1.20
2018-01-24T14:43:11.915Z,2.45
2018-01-24T14:44:18.833Z,1.15
2018-01-24T14:45:25.429Z,2.45
2018-01-24T14:46:35.175Z,3.72
2018-01-24T14:47:43.271Z,1.40
2018-01-24T14:48:51.349Z,1.35
2018-01-24T14:50:01.318Z,1.20
2018-01-24T14:51:09.084Z,2.65
2018-01-24T14:52:16.589Z,1.00
2018-01-24T14:53:25.397Z,2.15